John H. — WAC6768 — position and weather

sailwx.info

Track history (hours):
 
Tides and Currents Weather Stations Pressure Air Temp Water Temp Dewpoint Dewpoint Depression Visibility Wind Speed Wind Dir Waves Ship Positions

John H.

Owner: CROSS SOUND FERRY SERVICE INC, NEW LOUDON, CT. More information available from US FCC via Universal Licensing System and Coast Guard Vessel Documentation Center.

Last reported at 2017-Sep-20 23:39 UTC. Time now 2017-Sep-21 10:47 UTC.
Position N 41°14' W 072°09'.

Length 70 m; draft 3.2 m.

Type: Passenger vessel. MMSI: 366934890.

Date/timePositionNaut miles runAvg speedWind from/ knotsBaromVisibWave heightAir tempDewpointWater temp
2017-Sep-20 23:39N 41°14' W 072°09'212.1
2017-Sep-20 23:30N 41°13' W 072°11'3 2.2
2017-Sep-20 22:10N 41°10' W 072°13'211.3
2017-Sep-20 22:00N 41°12' W 072°13'7 3.2
2017-Sep-20 19:51N 41°16' W 072°06'514.1
2017-Sep-20 19:28N 41°12' W 072°11'4 3.0
2017-Sep-20 18:17N 41°09' W 072°13'311.0
2017-Sep-20 18:00N 41°12' W 072°12'8 3.9
2017-Sep-20 16:01N 41°18' W 072°05'612.7
2017-Sep-20 15:34N 41°14' W 072°11'112.0
2017-Sep-20 15:30N 41°13' W 072°11'2 1.2
2017-Sep-20 14:00N 41°12' W 072°13'7 3.9
2017-Sep-20 12:10N 41°16' W 072°05'410.1
2017-Sep-20 11:45N 41°14' W 072°10'310.9
2017-Sep-20 11:30N 41°12' W 072°12'2 1.6
2017-Sep-20 10:22N 41°10' W 072°13'512.8
2017-Sep-20 10:00N 41°14' W 072°10'5 0.6
2017-Sep-20 01:30N 41°18' W 072°06'611.6
2017-Sep-20 00:59N 41°14' W 072°11'5 5.6
2017-Sep-20 00:09N 41°09' W 072°13'1 8.4
2017-Sep-20 00:00N 41°11' W 072°14'714.8
2017-Sep-19 23:30N 41°16' W 072°07'1 0.9
2017-Sep-19 21:59N 41°17' W 072°05'611.8
2017-Sep-19 21:29N 41°12' W 072°11'4 2.8
2017-Sep-19 20:12N 41°09' W 072°13'311.7
2017-Sep-19 19:59N 41°12' W 072°12'5 2.5
2017-Sep-19 17:46N 41°16' W 072°07'414.4
2017-Sep-19 17:31N 41°13' W 072°11'4 2.9
2017-Sep-19 16:12N 41°10' W 072°13'210.7
2017-Sep-19 16:01N 41°12' W 072°12'3 1.3
2017-Sep-19 13:42N 41°14' W 072°10'211.5
2017-Sep-19 13:30N 41°12' W 072°12'3 2.4
2017-Sep-19 12:11N 41°09' W 072°14'210.9
2017-Sep-19 12:00N 41°11' W 072°13'2 0.2
2017-Sep-18 23:28N 41°13' W 072°11'3 2.4
2017-Sep-18 22:06N 41°10' W 072°13'111.4
2017-Sep-18 22:00N 41°11' W 072°13'8 3.6
2017-Sep-18 19:53N 41°17' W 072°06'514.0
2017-Sep-18 19:30N 41°13' W 072°11'3 2.6
2017-Sep-18 18:15N 41°10' W 072°13'310.5
2017-Sep-18 18:00N 41°12' W 072°12'2 0.8
2017-Sep-18 15:37N 41°14' W 072°10'214.9
2017-Sep-18 15:29N 41°12' W 072°11'3 2.7
2017-Sep-18 14:15N 41°09' W 072°13'312.6
2017-Sep-18 14:00N 41°12' W 072°13'3 1.2
2017-Sep-18 11:40N 41°14' W 072°10'211.3
2017-Sep-18 11:28N 41°12' W 072°11'2 0.2
2017-Sep-18 01:56N 41°10' W 072°13'612.4
2017-Sep-18 01:28N 41°15' W 072°09'4 2.6
2017-Sep-18 00:07N 41°17' W 072°05'212.8
2017-Sep-17 23:57N 41°15' W 072°07'511.6
2017-Sep-17 23:30N 41°12' W 072°12'3 2.1
2017-Sep-17 22:13N 41°09' W 072°14'211.7
2017-Sep-17 22:00N 41°12' W 072°13'8 3.9
2017-Sep-17 19:56N 41°17' W 072°05'613.4
2017-Sep-17 19:30N 41°13' W 072°11'5 3.7
2017-Sep-17 18:17N 41°09' W 072°14'311.5
2017-Sep-17 18:00N 41°12' W 072°12'6 3.0
2017-Sep-17 15:50N 41°16' W 072°06'514.8
2017-Sep-17 15:29N 41°13' W 072°11'4 3.7
2017-Sep-17 14:18N 41°09' W 072°14'310.8
2017-Sep-17 14:00N 41°12' W 072°13'8 4.3
2017-Sep-17 12:06N 41°18' W 072°05'312.8
2017-Sep-17 11:52N 41°15' W 072°07'411.0
2017-Sep-17 11:29N 41°13' W 072°11'4 0.4
2017-Sep-17 00:47N 41°09' W 072°14'0 0.0
2017-Sep-17 00:30N 41°09' W 072°14'3 5.2
2017-Sep-17 00:00N 41°12' W 072°15'714.4
2017-Sep-16 23:30N 41°16' W 072°07'5 9.0
2017-Sep-16 22:55N 41°21' W 072°06'0 0.2
2017-Sep-16 22:19N 41°21' W 072°05'411.4
2017-Sep-16 21:58N 41°17' W 072°05'612.3
2017-Sep-16 21:30N 41°13' W 072°10'5 9.6
2017-Sep-16 21:00N 41°09' W 072°14'0 0.2
2017-Sep-16 20:17N 41°09' W 072°14'3 9.0
2017-Sep-16 20:00N 41°12' W 072°13'713.6
2017-Sep-16 19:31N 41°16' W 072°07'2 1.5
2017-Sep-16 18:00N 41°18' W 072°05'813.9
2017-Sep-16 17:26N 41°13' W 072°13'3 2.8
2017-Sep-16 16:16N 41°09' W 072°13'311.2
2017-Sep-16 16:00N 41°12' W 072°13'7 3.3
2017-Sep-16 13:53N 41°17' W 072°05'614.1
2017-Sep-16 13:26N 41°12' W 072°11'4 2.9
2017-Sep-16 12:12N 41°09' W 072°14'2 8.9
2017-Sep-16 11:58N 41°11' W 072°13'9 0.8
2017-Sep-16 01:51N 41°17' W 072°05'714.2
2017-Sep-16 01:23N 41°12' W 072°11'3 2.7
2017-Sep-16 00:15N 41°09' W 072°13'310.6
2017-Sep-15 23:59N 41°12' W 072°13'712.9
2017-Sep-15 23:28N 41°17' W 072°06'0 0.3
2017-Sep-15 21:59N 41°17' W 072°06'612.2
2017-Sep-15 21:30N 41°13' W 072°11'3 2.3
2017-Sep-15 20:11N 41°10' W 072°14'212.5
2017-Sep-15 20:00N 41°12' W 072°13'7 3.0
2017-Sep-15 17:49N 41°17' W 072°06'413.7
2017-Sep-15 17:30N 41°14' W 072°10'5 3.8
2017-Sep-15 16:15N 41°09' W 072°13'311.9
2017-Sep-15 16:00N 41°12' W 072°13'611.9
2017-Sep-15 15:30N 41°16' W 072°07'1 0.3
2017-Sep-15 13:48N 41°16' W 072°06'414.7
2017-Sep-15 13:30N 41°13' W 072°10'4 3.1
2017-Sep-15 12:14N 41°10' W 072°13'2 9.9
2017-Sep-15 12:00N 41°12' W 072°13'5 0.4
2017-Sep-14 23:44N 41°15' W 072°07'313.9
2017-Sep-14 23:31N 41°13' W 072°10'4 2.8
2017-Sep-14 22:06N 41°10' W 072°13'112.1
2017-Sep-14 21:59N 41°12' W 072°14'714.1
2017-Sep-14 21:28N 41°17' W 072°07'2 1.2
2017-Sep-14 19:45N 41°15' W 072°08'311.9
2017-Sep-14 19:30N 41°13' W 072°11'4 3.0
2017-Sep-14 18:12N 41°09' W 072°14'2 9.9
2017-Sep-14 18:00N 41°11' W 072°14'8 3.8
2017-Sep-14 15:49N 41°17' W 072°06'413.9
2017-Sep-14 15:31N 41°14' W 072°10'5 4.0
2017-Sep-14 14:15N 41°09' W 072°13'311.4
2017-Sep-14 14:00N 41°12' W 072°12'7 3.4
2017-Sep-14 11:53N 41°17' W 072°05'514.0
2017-Sep-14 11:31N 41°13' W 072°10'5 0.4
2017-Sep-14 00:22N 41°09' W 072°13'3 9.0
2017-Sep-14 00:00N 41°12' W 072°11'510.5
2017-Sep-13 23:30N 41°16' W 072°07'2 1.4
2017-Sep-13 22:01N 41°18' W 072°05'013.6
2017-Sep-13 22:00N 41°18' W 072°05'713.5
2017-Sep-13 21:29N 41°13' W 072°11'4 2.8
2017-Sep-13 20:15N 41°09' W 072°13'312.1
2017-Sep-13 20:00N 41°12' W 072°12'9 4.5
2017-Sep-13 18:07N 41°19' W 072°05'213.0
2017-Sep-13 18:00N 41°17' W 072°06'612.3
2017-Sep-13 17:30N 41°13' W 072°11'4 3.6
2017-Sep-13 16:17N 41°09' W 072°14'310.4
2017-Sep-13 16:00N 41°12' W 072°13'713.3
2017-Sep-13 15:30N 41°17' W 072°07'1 0.5
2017-Sep-13 13:51N 41°16' W 072°06'514.6
2017-Sep-13 13:29N 41°13' W 072°11'4 3.8
2017-Sep-13 12:21N 41°09' W 072°14'410.9
2017-Sep-13 12:00N 41°13' W 072°12'712.2
2017-Sep-13 11:25N 41°18' W 072°05'1 0.1
2017-Sep-12 23:49N 41°16' W 072°06'514.8
2017-Sep-12 23:30N 41°13' W 072°10'5 5.6
2017-Sep-12 22:35N 41°09' W 072°14'0 0.0
2017-Sep-12 22:30N 41°09' W 072°14'4 7.6
2017-Sep-12 22:00N 41°13' W 072°12'612.5
2017-Sep-12 21:29N 41°17' W 072°06'1 0.8
2017-Sep-12 19:59N 41°18' W 072°05'612.9
2017-Sep-12 19:30N 41°13' W 072°10'5 9.7
2017-Sep-12 18:59N 41°09' W 072°14'0 0.0
2017-Sep-12 18:30N 41°09' W 072°14'2 4.7
2017-Sep-12 18:00N 41°11' W 072°13'714.6
2017-Sep-12 17:30N 41°17' W 072°06'2 1.2
2017-Sep-12 16:07N 41°18' W 072°05'112.9
2017-Sep-12 16:00N 41°17' W 072°06'612.7
2017-Sep-12 15:30N 41°12' W 072°12'3 2.1
2017-Sep-12 14:14N 41°10' W 072°13'311.0
2017-Sep-12 14:00N 41°12' W 072°12'712.9
2017-Sep-12 13:29N 41°17' W 072°06'2 1.3
2017-Sep-12 12:04N 41°19' W 072°05'112.5
2017-Sep-12 12:00N 41°18' W 072°05'714.0
2017-Sep-12 11:30N 41°13' W 072°11'4 0.4
2017-Sep-12 00:24N 41°09' W 072°14'410.5
2017-Sep-12 00:00N 41°13' W 072°11'612.1
2017-Sep-11 23:30N 41°17' W 072°06'1 0.6
2017-Sep-11 21:55N 41°18' W 072°05'614.3
2017-Sep-11 21:30N 41°13' W 072°10'5 4.0
2017-Sep-11 20:20N 41°09' W 072°13'411.4
2017-Sep-11 20:00N 41°13' W 072°11'7 1.2
2017-Sep-11 14:06N 41°18' W 072°05'212.4
2017-Sep-11 13:59N 41°17' W 072°06'613.3
2017-Sep-11 13:30N 41°12' W 072°12'3 3.2
2017-Sep-11 12:26N 41°09' W 072°14'511.6
2017-Sep-11 12:00N 41°13' W 072°10'4 0.4
2017-Sep-11 01:51N 41°16' W 072°06'513.3
2017-Sep-11 01:30N 41°13' W 072°11'4 3.9
2017-Sep-11 00:27N 41°09' W 072°14'510.7
2017-Sep-11 00:00N 41°13' W 072°10'  
Track history (hours):
 
Tides and Currents Weather Stations Pressure Air Temp Water Temp Dewpoint Dewpoint Depression Visibility Wind Speed Wind Dir Waves Ship Positions

John H.

Owner: CROSS SOUND FERRY SERVICE INC, NEW LOUDON, CT. More information available from US FCC via Universal Licensing System and Coast Guard Vessel Documentation Center.

Last reported at 2017-Sep-20 23:39 UTC. Time now 2017-Sep-21 10:47 UTC.
Position N 41°14' W 072°09'.

Length 70 m; draft 3.2 m.

Type: Passenger vessel. MMSI: 366934890.

Date/timePositionNaut miles runAvg speedWind from/ knotsBaromVisibWave heightAir tempDewpointWater temp
2017-Sep-20 23:39N 41°14' W 072°09'212.1
2017-Sep-20 23:30N 41°13' W 072°11'3 2.2
2017-Sep-20 22:10N 41°10' W 072°13'211.3
2017-Sep-20 22:00N 41°12' W 072°13'7 3.2
2017-Sep-20 19:51N 41°16' W 072°06'514.1
2017-Sep-20 19:28N 41°12' W 072°11'4 3.0
2017-Sep-20 18:17N 41°09' W 072°13'311.0
2017-Sep-20 18:00N 41°12' W 072°12'8 3.9
2017-Sep-20 16:01N 41°18' W 072°05'612.7
2017-Sep-20 15:34N 41°14' W 072°11'112.0
2017-Sep-20 15:30N 41°13' W 072°11'2 1.2
2017-Sep-20 14:00N 41°12' W 072°13'7 3.9
2017-Sep-20 12:10N 41°16' W 072°05'410.1
2017-Sep-20 11:45N 41°14' W 072°10'310.9
2017-Sep-20 11:30N 41°12' W 072°12'2 1.6
2017-Sep-20 10:22N 41°10' W 072°13'512.8
2017-Sep-20 10:00N 41°14' W 072°10'5 0.6
2017-Sep-20 01:30N 41°18' W 072°06'611.6
2017-Sep-20 00:59N 41°14' W 072°11'5 5.6
2017-Sep-20 00:09N 41°09' W 072°13'1 8.4
2017-Sep-20 00:00N 41°11' W 072°14'714.8
2017-Sep-19 23:30N 41°16' W 072°07'1 0.9
2017-Sep-19 21:59N 41°17' W 072°05'611.8
2017-Sep-19 21:29N 41°12' W 072°11'4 2.8
2017-Sep-19 20:12N 41°09' W 072°13'311.7
2017-Sep-19 19:59N 41°12' W 072°12'5 2.5
2017-Sep-19 17:46N 41°16' W 072°07'414.4
2017-Sep-19 17:31N 41°13' W 072°11'4 2.9
2017-Sep-19 16:12N 41°10' W 072°13'210.7
2017-Sep-19 16:01N 41°12' W 072°12'3 1.3
2017-Sep-19 13:42N 41°14' W 072°10'211.5
2017-Sep-19 13:30N 41°12' W 072°12'3 2.4
2017-Sep-19 12:11N 41°09' W 072°14'210.9
2017-Sep-19 12:00N 41°11' W 072°13'2 0.2
2017-Sep-18 23:28N 41°13' W 072°11'3 2.4
2017-Sep-18 22:06N 41°10' W 072°13'111.4
2017-Sep-18 22:00N 41°11' W 072°13'8 3.6
2017-Sep-18 19:53N 41°17' W 072°06'514.0
2017-Sep-18 19:30N 41°13' W 072°11'3 2.6
2017-Sep-18 18:15N 41°10' W 072°13'310.5
2017-Sep-18 18:00N 41°12' W 072°12'2 0.8
2017-Sep-18 15:37N 41°14' W 072°10'214.9
2017-Sep-18 15:29N 41°12' W 072°11'3 2.7
2017-Sep-18 14:15N 41°09' W 072°13'312.6
2017-Sep-18 14:00N 41°12' W 072°13'3 1.2
2017-Sep-18 11:40N 41°14' W 072°10'211.3
2017-Sep-18 11:28N 41°12' W 072°11'2 0.2
2017-Sep-18 01:56N 41°10' W 072°13'612.4
2017-Sep-18 01:28N 41°15' W 072°09'4 2.6
2017-Sep-18 00:07N 41°17' W 072°05'212.8
2017-Sep-17 23:57N 41°15' W 072°07'511.6
2017-Sep-17 23:30N 41°12' W 072°12'3 2.1
2017-Sep-17 22:13N 41°09' W 072°14'211.7
2017-Sep-17 22:00N 41°12' W 072°13'8 3.9
2017-Sep-17 19:56N 41°17' W 072°05'613.4
2017-Sep-17 19:30N 41°13' W 072°11'5 3.7
2017-Sep-17 18:17N 41°09' W 072°14'311.5
2017-Sep-17 18:00N 41°12' W 072°12'6 3.0
2017-Sep-17 15:50N 41°16' W 072°06'514.8
2017-Sep-17 15:29N 41°13' W 072°11'4 3.7
2017-Sep-17 14:18N 41°09' W 072°14'310.8
2017-Sep-17 14:00N 41°12' W 072°13'8 4.3
2017-Sep-17 12:06N 41°18' W 072°05'312.8
2017-Sep-17 11:52N 41°15' W 072°07'411.0
2017-Sep-17 11:29N 41°13' W 072°11'4 0.4
2017-Sep-17 00:47N 41°09' W 072°14'0 0.0
2017-Sep-17 00:30N 41°09' W 072°14'3 5.2
2017-Sep-17 00:00N 41°12' W 072°15'714.4
2017-Sep-16 23:30N 41°16' W 072°07'5 9.0
2017-Sep-16 22:55N 41°21' W 072°06'0 0.2
2017-Sep-16 22:19N 41°21' W 072°05'411.4
2017-Sep-16 21:58N 41°17' W 072°05'612.3
2017-Sep-16 21:30N 41°13' W 072°10'5 9.6
2017-Sep-16 21:00N 41°09' W 072°14'0 0.2
2017-Sep-16 20:17N 41°09' W 072°14'3 9.0
2017-Sep-16 20:00N 41°12' W 072°13'713.6
2017-Sep-16 19:31N 41°16' W 072°07'2 1.5
2017-Sep-16 18:00N 41°18' W 072°05'813.9
2017-Sep-16 17:26N 41°13' W 072°13'3 2.8
2017-Sep-16 16:16N 41°09' W 072°13'311.2
2017-Sep-16 16:00N 41°12' W 072°13'7 3.3
2017-Sep-16 13:53N 41°17' W 072°05'614.1
2017-Sep-16 13:26N 41°12' W 072°11'4 2.9
2017-Sep-16 12:12N 41°09' W 072°14'2 8.9
2017-Sep-16 11:58N 41°11' W 072°13'9 0.8
2017-Sep-16 01:51N 41°17' W 072°05'714.2
2017-Sep-16 01:23N 41°12' W 072°11'3 2.7
2017-Sep-16 00:15N 41°09' W 072°13'310.6
2017-Sep-15 23:59N 41°12' W 072°13'712.9
2017-Sep-15 23:28N 41°17' W 072°06'0 0.3
2017-Sep-15 21:59N 41°17' W 072°06'612.2
2017-Sep-15 21:30N 41°13' W 072°11'3 2.3
2017-Sep-15 20:11N 41°10' W 072°14'212.5
2017-Sep-15 20:00N 41°12' W 072°13'7 3.0
2017-Sep-15 17:49N 41°17' W 072°06'413.7
2017-Sep-15 17:30N 41°14' W 072°10'5 3.8
2017-Sep-15 16:15N 41°09' W 072°13'311.9
2017-Sep-15 16:00N 41°12' W 072°13'611.9
2017-Sep-15 15:30N 41°16' W 072°07'1 0.3
2017-Sep-15 13:48N 41°16' W 072°06'414.7
2017-Sep-15 13:30N 41°13' W 072°10'4 3.1
2017-Sep-15 12:14N 41°10' W 072°13'2 9.9
2017-Sep-15 12:00N 41°12' W 072°13'5 0.4
2017-Sep-14 23:44N 41°15' W 072°07'313.9
2017-Sep-14 23:31N 41°13' W 072°10'4 2.8
2017-Sep-14 22:06N 41°10' W 072°13'112.1
2017-Sep-14 21:59N 41°12' W 072°14'714.1
2017-Sep-14 21:28N 41°17' W 072°07'2 1.2
2017-Sep-14 19:45N 41°15' W 072°08'311.9
2017-Sep-14 19:30N 41°13' W 072°11'4 3.0
2017-Sep-14 18:12N 41°09' W 072°14'2 9.9
2017-Sep-14 18:00N 41°11' W 072°14'8 3.8
2017-Sep-14 15:49N 41°17' W 072°06'413.9
2017-Sep-14 15:31N 41°14' W 072°10'5 4.0
2017-Sep-14 14:15N 41°09' W 072°13'311.4
2017-Sep-14 14:00N 41°12' W 072°12'7 3.4
2017-Sep-14 11:53N 41°17' W 072°05'514.0
2017-Sep-14 11:31N 41°13' W 072°10'5 0.4
2017-Sep-14 00:22N 41°09' W 072°13'3 9.0
2017-Sep-14 00:00N 41°12' W 072°11'510.5
2017-Sep-13 23:30N 41°16' W 072°07'2 1.4
2017-Sep-13 22:01N 41°18' W 072°05'013.6
2017-Sep-13 22:00N 41°18' W 072°05'713.5
2017-Sep-13 21:29N 41°13' W 072°11'4 2.8
2017-Sep-13 20:15N 41°09' W 072°13'312.1
2017-Sep-13 20:00N 41°12' W 072°12'9 4.5
2017-Sep-13 18:07N 41°19' W 072°05'213.0
2017-Sep-13 18:00N 41°17' W 072°06'612.3
2017-Sep-13 17:30N 41°13' W 072°11'4 3.6
2017-Sep-13 16:17N 41°09' W 072°14'310.4
2017-Sep-13 16:00N 41°12' W 072°13'713.3
2017-Sep-13 15:30N 41°17' W 072°07'1 0.5
2017-Sep-13 13:51N 41°16' W 072°06'514.6
2017-Sep-13 13:29N 41°13' W 072°11'4 3.8
2017-Sep-13 12:21N 41°09' W 072°14'410.9
2017-Sep-13 12:00N 41°13' W 072°12'712.2
2017-Sep-13 11:25N 41°18' W 072°05'1 0.1
2017-Sep-12 23:49N 41°16' W 072°06'514.8
2017-Sep-12 23:30N 41°13' W 072°10'5 5.6
2017-Sep-12 22:35N 41°09' W 072°14'0 0.0
2017-Sep-12 22:30N 41°09' W 072°14'4 7.6
2017-Sep-12 22:00N 41°13' W 072°12'612.5
2017-Sep-12 21:29N 41°17' W 072°06'1 0.8
2017-Sep-12 19:59N 41°18' W 072°05'612.9
2017-Sep-12 19:30N 41°13' W 072°10'5 9.7
2017-Sep-12 18:59N 41°09' W 072°14'0 0.0
2017-Sep-12 18:30N 41°09' W 072°14'2 4.7
2017-Sep-12 18:00N 41°11' W 072°13'714.6
2017-Sep-12 17:30N 41°17' W 072°06'2 1.2
2017-Sep-12 16:07N 41°18' W 072°05'112.9
2017-Sep-12 16:00N 41°17' W 072°06'612.7
2017-Sep-12 15:30N 41°12' W 072°12'3 2.1
2017-Sep-12 14:14N 41°10' W 072°13'311.0
2017-Sep-12 14:00N 41°12' W 072°12'712.9
2017-Sep-12 13:29N 41°17' W 072°06'2 1.3
2017-Sep-12 12:04N 41°19' W 072°05'112.5
2017-Sep-12 12:00N 41°18' W 072°05'714.0
2017-Sep-12 11:30N 41°13' W 072°11'4 0.4
2017-Sep-12 00:24N 41°09' W 072°14'410.5
2017-Sep-12 00:00N 41°13' W 072°11'612.1
2017-Sep-11 23:30N 41°17' W 072°06'1 0.6
2017-Sep-11 21:55N 41°18' W 072°05'614.3
2017-Sep-11 21:30N 41°13' W 072°10'5 4.0
2017-Sep-11 20:20N 41°09' W 072°13'411.4
2017-Sep-11 20:00N 41°13' W 072°11'7 1.2
2017-Sep-11 14:06N 41°18' W 072°05'212.4
2017-Sep-11 13:59N 41°17' W 072°06'613.3
2017-Sep-11 13:30N 41°12' W 072°12'3 3.2
2017-Sep-11 12:26N 41°09' W 072°14'511.6
2017-Sep-11 12:00N 41°13' W 072°10'4 0.4
2017-Sep-11 01:51N 41°16' W 072°06'513.3
2017-Sep-11 01:30N 41°13' W 072°11'4 3.9
2017-Sep-11 00:27N 41°09' W 072°14'510.7
2017-Sep-11 00:00N 41°13' W 072°10'  

Dump ship's entire track history